createdAt,value
2018-04-15T00:02:15.595Z,10.43
2018-04-15T00:04:41.623Z,10.42
2018-04-15T00:07:07.640Z,10.41
2018-04-15T00:09:33.659Z,10.42
2018-04-15T00:11:59.687Z,10.44
2018-04-15T00:14:25.741Z,10.42
2018-04-15T00:16:51.738Z,10.44
2018-04-15T00:19:17.733Z,10.43
2018-04-15T00:21:43.735Z,10.43
2018-04-15T00:24:09.757Z,10.42
2018-04-15T00:26:35.876Z,10.42
2018-04-15T00:29:01.912Z,10.41
2018-04-15T00:31:28.043Z,10.39
2018-04-15T00:33:54.148Z,10.40
2018-04-15T00:36:20.267Z,10.39
2018-04-15T00:38:46.285Z,10.39
2018-04-15T00:41:12.341Z,10.41
2018-04-15T00:43:38.413Z,10.39
2018-04-15T00:46:04.526Z,10.41
2018-04-15T00:48:30.551Z,10.39
2018-04-15T00:50:56.640Z,10.40
2018-04-15T00:53:22.788Z,10.38
2018-04-15T00:55:48.923Z,10.40
2018-04-15T00:58:14.984Z,10.40
2018-04-15T01:00:41.008Z,10.39
2018-04-15T01:03:07.100Z,10.40
2018-04-15T01:05:33.112Z,10.41
2018-04-15T01:07:59.128Z,10.42
2018-04-15T01:10:25.141Z,10.44
2018-04-15T01:12:51.258Z,10.42
2018-04-15T01:15:17.242Z,10.44
2018-04-15T01:17:43.291Z,10.43
2018-04-15T01:20:09.296Z,10.43
2018-04-15T01:22:35.339Z,10.41
2018-04-15T01:25:01.349Z,10.40
2018-04-15T01:27:27.373Z,10.39
2018-04-15T01:29:53.396Z,10.39
2018-04-15T01:32:19.434Z,10.39
2018-04-15T01:34:45.440Z,10.41
2018-04-15T01:37:11.448Z,10.40
2018-04-15T01:39:37.479Z,10.40
2018-04-15T01:42:03.505Z,10.40
2018-04-15T01:44:29.529Z,10.38
2018-04-15T01:46:55.717Z,10.37
2018-04-15T01:49:21.731Z,10.36
2018-04-15T01:51:47.766Z,10.33
2018-04-15T01:54:13.793Z,10.35
2018-04-15T01:56:39.791Z,10.36
2018-04-15T01:59:05.820Z,10.34
2018-04-15T02:01:31.846Z,10.33
2018-04-15T02:03:57.871Z,10.33
2018-04-15T02:06:23.897Z,10.33
2018-04-15T02:08:49.961Z,10.35
2018-04-15T02:11:16.076Z,10.35
2018-04-15T02:13:42.084Z,10.35
2018-04-15T02:16:08.133Z,10.36
2018-04-15T02:18:34.165Z,10.34
2018-04-15T02:21:00.258Z,10.33
2018-04-15T02:23:26.288Z,10.31
2018-04-15T02:25:52.285Z,10.34
2018-04-15T02:28:18.985Z,10.33
2018-04-15T02:30:45.036Z,10.34
2018-04-15T02:33:11.137Z,10.35
2018-04-15T02:35:37.141Z,10.37
2018-04-15T02:38:03.125Z,10.35
2018-04-15T02:40:29.163Z,10.36
2018-04-15T02:42:55.221Z,10.35
2018-04-15T02:45:21.227Z,10.36
2018-04-15T02:47:47.259Z,10.36
2018-04-15T02:50:13.296Z,10.38
2018-04-15T02:52:39.300Z,10.41
2018-04-15T02:55:05.311Z,10.41
2018-04-15T02:57:31.353Z,10.41
2018-04-15T02:59:57.393Z,10.40
2018-04-15T03:02:23.399Z,10.41
2018-04-15T03:04:49.461Z,10.41
2018-04-15T03:07:15.512Z,10.49
2018-04-15T03:09:41.510Z,10.53
2018-04-15T03:12:07.505Z,10.63
2018-04-15T03:14:33.513Z,11.13
2018-04-15T03:16:59.523Z,10.61
2018-04-15T03:19:25.550Z,10.65
2018-04-15T03:21:51.569Z,10.78
2018-04-15T03:24:17.586Z,10.76
2018-04-15T03:26:43.648Z,10.72
2018-04-15T03:29:09.672Z,10.98
2018-04-15T03:31:35.677Z,11.18
2018-04-15T03:34:01.684Z,10.93
2018-04-15T03:36:27.679Z,10.83
2018-04-15T03:38:53.662Z,10.96
2018-04-15T03:41:19.674Z,10.76
2018-04-15T03:43:45.714Z,10.92
2018-04-15T03:46:11.777Z,10.80
2018-04-15T03:48:37.801Z,10.86
2018-04-15T03:51:03.803Z,10.83
2018-04-15T03:53:29.982Z,11.47
2018-04-15T03:55:55.997Z,11.94
2018-04-15T03:58:22.001Z,11.41
2018-04-15T04:00:48.078Z,10.97
2018-04-15T04:03:14.179Z,11.65
2018-04-15T04:05:40.310Z,10.95
2018-04-15T04:08:06.313Z,11.11
2018-04-15T04:10:32.324Z,11.28
2018-04-15T04:12:59.058Z,11.26
2018-04-15T04:15:25.029Z,11.20
2018-04-15T04:18:03.237Z,11.42
2018-04-15T04:20:41.342Z,11.24
2018-04-15T04:23:19.755Z,11.20
2018-04-15T04:25:57.834Z,11.14
2018-04-15T04:28:23.915Z,11.22
2018-04-15T04:30:49.936Z,10.97
2018-04-15T04:33:15.928Z,11.09
2018-04-15T04:35:41.920Z,11.06
2018-04-15T04:38:07.902Z,11.33
2018-04-15T04:40:33.987Z,10.98
2018-04-15T04:43:00.022Z,11.02
2018-04-15T04:45:26.006Z,10.94
2018-04-15T04:47:52.122Z,10.91
2018-04-15T04:50:18.131Z,10.95
2018-04-15T04:52:50.971Z,11.08
2018-04-15T04:55:17.518Z,11.09
2018-04-15T04:57:43.521Z,11.28
2018-04-15T05:00:09.640Z,11.33
2018-04-15T05:02:35.766Z,11.18
2018-04-15T05:05:01.792Z,11.11
2018-04-15T05:07:27.814Z,11.44
2018-04-15T05:09:53.873Z,11.30
2018-04-15T05:12:19.934Z,11.55
2018-04-15T05:14:45.957Z,11.19
2018-04-15T05:17:12.123Z,11.19
2018-04-15T05:19:38.197Z,11.56
2018-04-15T05:22:04.301Z,11.37
2018-04-15T05:24:30.406Z,11.15
2018-04-15T05:26:56.404Z,11.12
2018-04-15T05:29:22.476Z,11.32
2018-04-15T05:31:48.652Z,11.34
2018-04-15T05:34:15.584Z,11.08
2018-04-15T05:36:41.646Z,11.08
2018-04-15T05:39:07.684Z,11.07
2018-04-15T05:41:33.702Z,11.23
2018-04-15T05:43:59.754Z,11.32
2018-04-15T05:46:25.804Z,11.36
2018-04-15T05:48:51.831Z,11.49
2018-04-15T05:51:18.733Z,11.69
2018-04-15T05:53:44.762Z,11.69
2018-04-15T05:56:10.823Z,11.67
2018-04-15T05:58:36.934Z,11.69
2018-04-15T06:01:03.069Z,11.91
2018-04-15T06:03:29.104Z,12.07
2018-04-15T06:05:55.136Z,11.99
2018-04-15T06:08:21.295Z,11.90
2018-04-15T06:10:47.362Z,11.97
2018-04-15T06:13:13.376Z,12.03
2018-04-15T06:15:39.433Z,12.04
2018-04-15T06:18:05.456Z,12.28
2018-04-15T06:20:31.515Z,12.42
2018-04-15T06:25:30.269Z,12.63
2018-04-15T06:27:56.305Z,12.24
2018-04-15T06:30:22.405Z,12.24
2018-04-15T06:32:48.454Z,12.45
2018-04-15T06:35:14.469Z,12.60
2018-04-15T06:37:41.235Z,12.54
2018-04-15T06:40:07.268Z,12.45
2018-04-15T06:42:33.412Z,12.54
2018-04-15T06:44:59.856Z,12.54
2018-04-15T06:47:25.897Z,12.83
2018-04-15T06:49:51.947Z,12.72
2018-04-15T06:52:18.033Z,12.76
2018-04-15T06:54:44.049Z,12.85
2018-04-15T06:57:10.384Z,12.84
2018-04-15T06:59:36.600Z,12.92
2018-04-15T07:02:02.690Z,13.05
2018-04-15T07:04:29.274Z,12.98
2018-04-15T07:06:55.308Z,13.04
2018-04-15T07:09:21.429Z,13.01
2018-04-15T07:11:47.599Z,12.89
2018-04-15T07:14:13.726Z,12.78
2018-04-15T07:16:39.778Z,12.83
2018-04-15T07:19:05.895Z,12.80
2018-04-15T07:21:39.020Z,12.95
2018-04-15T07:24:05.119Z,13.07
2018-04-15T07:26:31.144Z,12.91
2018-04-15T07:28:57.147Z,12.97
2018-04-15T07:31:23.208Z,13.13
2018-04-15T07:33:49.261Z,13.13
2018-04-15T07:36:15.295Z,13.29
2018-04-15T07:38:41.384Z,13.09
2018-04-15T07:41:07.416Z,13.08
2018-04-15T07:43:33.463Z,13.15
2018-04-15T07:45:59.508Z,13.00
2018-04-15T07:48:25.499Z,13.44
2018-04-15T07:50:51.582Z,13.26
2018-04-15T07:53:17.623Z,13.28
2018-04-15T07:55:43.629Z,13.31
2018-04-15T07:58:09.649Z,13.74
2018-04-15T08:00:35.655Z,14.47
2018-04-15T08:03:01.684Z,14.30
2018-04-15T08:05:27.709Z,14.47
2018-04-15T08:07:54.313Z,14.67
2018-04-15T08:10:20.472Z,15.36
2018-04-15T08:12:46.473Z,15.08
2018-04-15T08:15:12.495Z,14.93
2018-04-15T08:17:38.615Z,14.63
2018-04-15T08:20:05.294Z,14.75
2018-04-15T08:22:31.379Z,15.00
2018-04-15T08:24:57.482Z,15.26
2018-04-15T08:27:23.510Z,14.78
2018-04-15T08:29:49.535Z,14.57
2018-04-15T08:32:15.563Z,14.55
2018-04-15T08:34:41.605Z,14.31
2018-04-15T08:37:07.755Z,14.31
2018-04-15T08:39:33.738Z,14.47
2018-04-15T08:41:59.760Z,14.61
2018-04-15T08:44:25.822Z,14.54
2018-04-15T08:46:51.796Z,14.81
2018-04-15T08:49:18.441Z,15.44
2018-04-15T08:51:44.521Z,16.02
2018-04-15T08:54:10.554Z,16.06
2018-04-15T08:56:36.620Z,16.00
2018-04-15T08:59:02.619Z,16.02
2018-04-15T09:01:28.752Z,17.03
2018-04-15T09:03:54.792Z,17.33
2018-04-15T09:06:20.804Z,17.60
2018-04-15T09:08:46.906Z,17.71
2018-04-15T09:11:13.056Z,17.98
2018-04-15T09:13:39.079Z,17.74
2018-04-15T09:16:05.109Z,17.98
2018-04-15T09:18:31.236Z,17.88
2018-04-15T09:20:57.289Z,18.13
2018-04-15T09:23:23.302Z,17.47
2018-04-15T09:25:49.340Z,16.76
2018-04-15T09:28:15.377Z,17.19
2018-04-15T09:30:47.367Z,18.23
2018-04-15T09:33:13.412Z,17.53
2018-04-15T09:35:39.469Z,16.99
2018-04-15T09:38:05.529Z,16.89
2018-04-15T09:40:31.550Z,18.46
2018-04-15T09:42:57.571Z,19.05
2018-04-15T09:45:23.597Z,17.58
2018-04-15T09:47:49.800Z,17.86
2018-04-15T09:50:15.855Z,19.48
2018-04-15T09:52:41.862Z,20.25
2018-04-15T09:55:07.898Z,20.53
2018-04-15T09:57:33.944Z,21.09
2018-04-15T09:59:59.989Z,21.28
2018-04-15T10:02:26.027Z,21.14
2018-04-15T10:04:52.037Z,20.75
2018-04-15T10:07:18.076Z,21.26
2018-04-15T10:09:44.339Z,21.11
2018-04-15T10:12:10.369Z,20.89
2018-04-15T10:14:36.389Z,20.56
2018-04-15T10:17:02.416Z,20.89
2018-04-15T10:19:28.554Z,20.97
2018-04-15T10:21:54.710Z,20.41
2018-04-15T10:24:20.809Z,20.49
2018-04-15T10:26:46.897Z,20.76
2018-04-15T10:29:12.892Z,20.74
2018-04-15T10:31:39.262Z,20.78
2018-04-15T10:34:05.341Z,20.81
2018-04-15T10:36:31.400Z,21.70
2018-04-15T10:38:57.473Z,22.82
2018-04-15T10:41:23.489Z,23.64
2018-04-15T10:43:49.496Z,24.63
2018-04-15T10:46:15.492Z,23.24
2018-04-15T10:48:41.500Z,22.39
2018-04-15T10:51:07.506Z,22.39
2018-04-15T10:53:33.608Z,22.42
2018-04-15T10:55:59.673Z,21.25
2018-04-15T10:58:25.705Z,21.11
2018-04-15T11:00:51.792Z,21.79
2018-04-15T11:03:17.821Z,21.51
2018-04-15T11:05:43.835Z,21.16
2018-04-15T11:08:09.851Z,22.34
2018-04-15T11:10:35.864Z,22.67
2018-04-15T11:13:01.952Z,21.57
2018-04-15T11:15:28.054Z,22.47
2018-04-15T11:17:54.071Z,22.47
2018-04-15T11:20:20.150Z,22.52
2018-04-15T11:22:46.221Z,22.31
2018-04-15T11:25:12.324Z,22.72
2018-04-15T11:27:38.363Z,22.33
2018-04-15T11:30:04.379Z,22.05
2018-04-15T11:32:37.417Z,21.10
2018-04-15T11:35:03.440Z,20.40
2018-04-15T11:37:29.447Z,19.47
2018-04-15T11:39:55.501Z,18.94
2018-04-15T11:42:21.572Z,18.85
2018-04-15T11:44:47.614Z,18.78
2018-04-15T11:47:13.662Z,18.71
2018-04-15T11:49:39.781Z,18.72
2018-04-15T11:52:05.788Z,19.05
2018-04-15T11:54:31.825Z,20.09
2018-04-15T11:56:57.850Z,20.26
2018-04-15T11:59:23.857Z,20.19
2018-04-15T12:01:49.855Z,21.64
2018-04-15T12:04:15.863Z,21.40
2018-04-15T12:06:41.927Z,20.73
2018-04-15T12:09:07.971Z,20.32
2018-04-15T12:11:34.038Z,20.44
2018-04-15T12:14:00.050Z,20.56
2018-04-15T12:16:26.125Z,21.03
2018-04-15T12:18:52.172Z,21.29
2018-04-15T12:21:18.890Z,21.53
2018-04-15T12:23:44.962Z,21.60
2018-04-15T12:26:11.033Z,21.03
2018-04-15T12:28:37.089Z,20.69
2018-04-15T12:31:03.113Z,20.69
2018-04-15T12:33:29.153Z,20.25
2018-04-15T12:35:55.296Z,19.90
2018-04-15T12:38:21.328Z,19.97
2018-04-15T12:40:47.405Z,20.23
2018-04-15T12:43:13.401Z,20.02
2018-04-15T12:45:39.440Z,19.90
2018-04-15T12:48:05.473Z,19.80
2018-04-15T12:50:31.681Z,19.58
2018-04-15T12:52:57.680Z,19.22
2018-04-15T12:55:23.720Z,19.03
2018-04-15T12:57:49.758Z,18.83
2018-04-15T13:00:15.804Z,18.65
2018-04-15T13:02:41.837Z,18.39
2018-04-15T13:05:07.877Z,18.26
2018-04-15T13:07:33.941Z,18.24
2018-04-15T13:10:00.005Z,17.88
2018-04-15T13:12:26.136Z,17.78
2018-04-15T13:14:52.760Z,17.70
2018-04-15T13:17:18.880Z,17.62
2018-04-15T13:19:44.893Z,17.49
2018-04-15T13:22:11.079Z,17.46
2018-04-15T13:24:37.227Z,17.57
2018-04-15T13:27:03.246Z,17.56
2018-04-15T13:29:29.289Z,17.48
2018-04-15T13:31:55.336Z,17.40
2018-04-15T13:34:21.386Z,17.32
2018-04-15T13:36:47.409Z,17.17
2018-04-15T13:39:13.416Z,17.20
2018-04-15T13:41:39.452Z,17.26
2018-04-15T13:44:05.468Z,17.30
2018-04-15T13:46:31.473Z,17.53
2018-04-15T13:48:57.521Z,17.60
2018-04-15T13:51:23.525Z,17.84
2018-04-15T13:53:49.534Z,18.46
2018-04-15T13:56:15.557Z,19.49
2018-04-15T13:58:41.573Z,20.14
2018-04-15T14:01:07.584Z,19.78
2018-04-15T14:03:33.630Z,19.30
2018-04-15T14:05:59.662Z,19.02
2018-04-15T14:08:25.693Z,18.89
2018-04-15T14:10:51.718Z,18.69
2018-04-15T14:13:17.764Z,18.50
2018-04-15T14:15:43.807Z,18.16
2018-04-15T14:18:09.867Z,18.07
2018-04-15T14:20:35.936Z,17.94
2018-04-15T14:23:01.951Z,17.94
2018-04-15T14:25:28.063Z,17.78
2018-04-15T14:27:54.047Z,17.56
2018-04-15T14:30:20.190Z,17.40
2018-04-15T14:32:46.269Z,17.45
2018-04-15T14:35:12.316Z,17.38
2018-04-15T14:37:39.153Z,17.29
2018-04-15T14:40:05.221Z,17.34
2018-04-15T14:42:31.265Z,17.21
2018-04-15T14:44:57.337Z,17.02
2018-04-15T14:47:23.357Z,17.02
2018-04-15T14:49:49.401Z,17.00
2018-04-15T14:52:15.526Z,16.91
2018-04-15T14:54:41.649Z,16.71
2018-04-15T14:57:07.777Z,16.63
2018-04-15T14:59:33.993Z,16.59
2018-04-15T15:02:00.092Z,16.60
2018-04-15T15:04:26.303Z,16.46
2018-04-15T15:06:52.341Z,16.40
2018-04-15T15:09:18.423Z,16.47
2018-04-15T15:11:44.492Z,16.54
2018-04-15T15:14:10.737Z,16.53
2018-04-15T15:16:36.944Z,16.59
2018-04-15T15:19:03.111Z,16.70
2018-04-15T15:21:29.222Z,16.75
2018-04-15T15:23:55.254Z,16.78
2018-04-15T15:26:21.519Z,16.77
2018-04-15T15:28:47.542Z,16.78
2018-04-15T15:31:13.607Z,16.80
2018-04-15T15:33:39.918Z,16.81
2018-04-15T15:36:06.047Z,16.92
2018-04-15T15:38:32.073Z,16.88
2018-04-15T15:40:58.136Z,16.75
2018-04-15T15:43:24.220Z,16.76
2018-04-15T15:45:50.300Z,16.66
2018-04-15T15:48:16.371Z,16.54
2018-04-15T15:50:43.188Z,16.43
2018-04-15T15:53:09.237Z,16.40
2018-04-15T15:55:35.263Z,16.31
2018-04-15T15:58:01.276Z,16.32
2018-04-15T16:00:27.452Z,16.31
2018-04-15T16:02:53.464Z,16.23
2018-04-15T16:05:19.495Z,16.15
2018-04-15T16:07:45.513Z,16.13
2018-04-15T16:10:11.538Z,16.16
2018-04-15T16:12:37.575Z,16.10
2018-04-15T16:15:03.612Z,16.02
2018-04-15T16:17:29.670Z,16.07
2018-04-15T16:19:55.711Z,16.02
2018-04-15T16:22:21.732Z,15.92
2018-04-15T16:24:47.839Z,15.85
2018-04-15T16:27:13.919Z,15.86
2018-04-15T16:29:39.953Z,15.81
2018-04-15T16:32:06.018Z,15.80
2018-04-15T16:34:32.066Z,15.82
2018-04-15T16:36:58.135Z,15.76
2018-04-15T16:39:24.151Z,15.76
2018-04-15T16:41:50.218Z,15.76
2018-04-15T16:44:16.255Z,15.78
2018-04-15T16:46:42.647Z,15.83
2018-04-15T16:49:08.692Z,15.86
2018-04-15T16:51:34.836Z,15.87
2018-04-15T16:54:01.008Z,15.82
2018-04-15T16:56:27.110Z,15.84
2018-04-15T16:58:53.145Z,15.81
2018-04-15T17:01:19.197Z,15.89
2018-04-15T17:03:45.383Z,15.90
2018-04-15T17:06:11.423Z,15.79
2018-04-15T17:08:37.489Z,15.69
2018-04-15T17:11:03.554Z,15.62
2018-04-15T17:13:29.545Z,15.64
2018-04-15T17:15:55.609Z,15.60
2018-04-15T17:18:21.634Z,15.58
2018-04-15T17:20:47.668Z,15.61
2018-04-15T17:23:13.764Z,15.58
2018-04-15T17:25:39.848Z,15.54
2018-04-15T17:28:06.007Z,15.56
2018-04-15T17:30:32.117Z,15.67
2018-04-15T17:32:58.142Z,15.54
2018-04-15T17:35:24.213Z,15.48
2018-04-15T17:37:50.365Z,15.56
2018-04-15T17:40:16.538Z,15.46
2018-04-15T17:42:42.718Z,15.41
2018-04-15T17:45:08.788Z,15.31
2018-04-15T17:47:34.826Z,15.25
2018-04-15T17:50:00.921Z,15.21
2018-04-15T17:52:27.034Z,15.23
2018-04-15T17:54:53.151Z,15.20
2018-04-15T17:57:19.289Z,15.13
2018-04-15T17:59:45.452Z,15.08
2018-04-15T18:02:11.691Z,15.04
2018-04-15T18:04:37.852Z,15.01
2018-04-15T18:07:03.954Z,14.97
2018-04-15T18:09:29.995Z,14.94
2018-04-15T18:14:28.858Z,14.80
2018-04-15T18:16:55.067Z,14.80
2018-04-15T18:19:21.233Z,14.78
2018-04-15T18:21:47.398Z,14.74
2018-04-15T18:24:13.427Z,14.71
2018-04-15T18:26:39.673Z,14.68
2018-04-15T18:29:05.785Z,14.58
2018-04-15T18:31:31.912Z,14.54
2018-04-15T18:33:58.001Z,14.51
2018-04-15T18:36:24.206Z,14.48
2018-04-15T18:38:50.361Z,14.45
2018-04-15T18:41:16.520Z,14.42
2018-04-15T18:43:42.572Z,14.39
2018-04-15T18:46:08.669Z,14.35
2018-04-15T18:48:34.703Z,14.33
2018-04-15T18:51:01.381Z,14.29
2018-04-15T18:53:27.478Z,14.27
2018-04-15T18:55:53.520Z,14.23
2018-04-15T18:58:19.596Z,14.19
2018-04-15T19:00:45.762Z,14.14
2018-04-15T19:03:11.790Z,14.10
2018-04-15T19:05:37.993Z,14.06
2018-04-15T19:08:04.117Z,14.10
2018-04-15T19:10:30.154Z,14.07
2018-04-15T19:12:56.376Z,14.07
2018-04-15T19:15:22.780Z,14.07
2018-04-15T19:17:48.893Z,14.05
2018-04-15T19:20:14.971Z,14.03
2018-04-15T19:22:41.127Z,14.01
2018-04-15T19:25:07.202Z,13.99
2018-04-15T19:27:33.225Z,13.98
2018-04-15T19:29:59.267Z,13.98
2018-04-15T19:32:25.458Z,13.98
2018-04-15T19:34:51.505Z,13.96
2018-04-15T19:37:17.547Z,13.96
2018-04-15T19:39:43.580Z,13.95
2018-04-15T19:42:09.620Z,13.92
2018-04-15T19:44:35.656Z,13.92
2018-04-15T19:47:01.680Z,13.89
2018-04-15T19:49:27.778Z,13.88
2018-04-15T19:51:54.634Z,13.86
2018-04-15T19:54:20.719Z,13.85
2018-04-15T19:56:46.947Z,13.83
2018-04-15T19:59:13.029Z,13.84
2018-04-15T20:01:39.043Z,13.83
2018-04-15T20:04:05.540Z,13.80
2018-04-15T20:06:31.600Z,13.78
2018-04-15T20:08:57.605Z,13.76
2018-04-15T20:11:23.620Z,13.73
2018-04-15T20:13:49.701Z,13.75
2018-04-15T20:16:15.754Z,13.70
2018-04-15T20:18:41.795Z,13.70
2018-04-15T20:21:07.875Z,13.69
2018-04-15T20:23:34.022Z,13.68
2018-04-15T20:26:00.190Z,13.66
2018-04-15T20:28:26.360Z,13.65
2018-04-15T20:30:52.489Z,13.64
2018-04-15T20:33:18.716Z,13.62
2018-04-15T20:35:44.749Z,13.61
2018-04-15T20:38:10.840Z,13.60
2018-04-15T20:40:36.893Z,13.58
2018-04-15T20:43:02.984Z,13.56
2018-04-15T20:45:29.124Z,13.56
2018-04-15T20:47:55.158Z,13.55
2018-04-15T20:50:21.305Z,13.53
2018-04-15T20:52:47.388Z,13.51
2018-04-15T20:55:13.439Z,13.50
2018-04-15T20:57:39.483Z,13.48
2018-04-15T21:00:05.533Z,13.48
2018-04-15T21:02:31.580Z,13.47
2018-04-15T21:04:57.756Z,13.46
2018-04-15T21:07:23.799Z,13.47
2018-04-15T21:09:49.827Z,13.48
2018-04-15T21:12:15.868Z,13.49
2018-04-15T21:14:41.940Z,13.46
2018-04-15T21:17:08.005Z,13.43
2018-04-15T21:19:34.023Z,13.43
2018-04-15T21:22:00.059Z,13.46
2018-04-15T21:24:26.112Z,13.44
2018-04-15T21:26:52.184Z,13.43
2018-04-15T21:29:18.249Z,13.45
2018-04-15T21:31:44.279Z,13.46
2018-04-15T21:34:10.329Z,13.44
2018-04-15T21:36:36.464Z,13.47
2018-04-15T21:39:02.621Z,13.46
2018-04-15T21:41:28.770Z,13.43
2018-04-15T21:43:54.854Z,13.44
2018-04-15T21:46:20.966Z,13.45
2018-04-15T21:48:47.153Z,13.42
2018-04-15T21:51:13.949Z,13.39
2018-04-15T21:53:39.965Z,13.37
2018-04-15T21:56:06.084Z,13.37
2018-04-15T21:58:32.084Z,13.35
2018-04-15T22:00:58.169Z,13.33
2018-04-15T22:03:24.200Z,13.35
2018-04-15T22:05:50.246Z,13.32
2018-04-15T22:08:16.298Z,13.27
2018-04-15T22:10:42.819Z,13.22
2018-04-15T22:13:08.999Z,13.07
2018-04-15T22:15:35.094Z,12.83
2018-04-15T22:18:01.127Z,12.66
2018-04-15T22:20:27.197Z,12.59
2018-04-15T22:22:53.360Z,12.48
2018-04-15T22:25:19.427Z,12.46
2018-04-15T22:27:45.492Z,12.42
2018-04-15T22:30:11.525Z,12.33
2018-04-15T22:32:37.561Z,12.23
2018-04-15T22:35:03.596Z,12.16
2018-04-15T22:37:29.619Z,12.16
2018-04-15T22:39:55.644Z,12.10
2018-04-15T22:42:21.665Z,12.07
2018-04-15T22:44:47.748Z,12.03
2018-04-15T22:47:13.784Z,11.99
2018-04-15T22:49:42.869Z,11.98
2018-04-15T22:52:09.034Z,12.00
2018-04-15T22:54:35.154Z,12.00
2018-04-15T22:57:07.423Z,11.99
2018-04-15T22:59:33.494Z,12.03
2018-04-15T23:01:59.508Z,12.00
2018-04-15T23:04:25.520Z,12.05
2018-04-15T23:06:51.616Z,12.03
2018-04-15T23:09:17.677Z,12.25
2018-04-15T23:11:43.740Z,12.16
2018-04-15T23:14:09.756Z,12.16
2018-04-15T23:16:35.832Z,12.11
2018-04-15T23:19:01.901Z,12.43
2018-04-15T23:21:27.949Z,12.37
2018-04-15T23:23:53.961Z,12.33
2018-04-15T23:26:20.040Z,12.11
2018-04-15T23:28:46.113Z,12.23
2018-04-15T23:31:12.326Z,12.04
2018-04-15T23:33:38.381Z,11.98
2018-04-15T23:36:04.424Z,12.01
2018-04-15T23:38:30.490Z,11.97
2018-04-15T23:40:56.536Z,11.96
2018-04-15T23:43:22.718Z,11.89
2018-04-15T23:45:48.974Z,11.89
2018-04-15T23:48:15.082Z,11.89
2018-04-15T23:50:41.177Z,11.86
2018-04-15T23:53:07.268Z,11.94
2018-04-15T23:55:33.421Z,12.01
2018-04-15T23:57:59.455Z,11.97
